createdAt,value
2023-08-23T00:01:13.338Z,3.20
2023-08-23T00:03:49.347Z,2.90
2023-08-23T00:06:17.172Z,3.22
2023-08-23T00:08:44.930Z,3.03
2023-08-23T00:11:14.059Z,3.08
2023-08-23T00:13:42.008Z,2.80
2023-08-23T00:16:09.804Z,3.13
2023-08-23T00:18:37.631Z,2.65
2023-08-23T00:21:05.702Z,2.80
2023-08-23T00:23:33.445Z,2.55
2023-08-23T00:26:01.279Z,2.97
2023-08-23T00:28:30.421Z,2.90
2023-08-23T00:30:58.496Z,3.13
2023-08-23T00:33:26.493Z,2.75
2023-08-23T00:35:54.360Z,2.90
2023-08-23T00:38:22.117Z,2.70
2023-08-23T00:40:50.092Z,2.85
2023-08-23T00:43:17.950Z,2.95
2023-08-23T00:45:47.701Z,3.08
2023-08-23T00:48:16.040Z,2.92
2023-08-23T00:50:45.026Z,3.13
2023-08-23T00:53:16.008Z,3.00
2023-08-23T00:55:43.874Z,3.30
2023-08-23T00:58:12.257Z,2.80
2023-08-23T01:00:43.495Z,2.70
2023-08-23T01:03:12.651Z,2.90
2023-08-23T01:06:00.161Z,2.47
2023-08-23T01:08:40.507Z,2.92
2023-08-23T01:11:17.154Z,2.80
2023-08-23T01:13:54.825Z,2.90
2023-08-23T01:16:24.949Z,3.28
2023-08-23T01:18:57.032Z,3.15
2023-08-23T01:21:34.287Z,2.50
2023-08-23T01:24:09.633Z,3.05
2023-08-23T01:26:40.727Z,2.80
2023-08-23T01:29:08.870Z,2.85
2023-08-23T01:31:44.219Z,3.20
2023-08-23T01:34:20.007Z,2.90
2023-08-23T01:36:49.662Z,2.78
2023-08-23T01:39:19.222Z,3.00
2023-08-23T01:41:47.487Z,2.67
2023-08-23T01:44:15.296Z,3.63
2023-08-23T01:46:44.106Z,2.92
2023-08-23T01:49:12.585Z,2.72
2023-08-23T01:51:40.487Z,2.80
2023-08-23T01:54:08.250Z,2.85
2023-08-23T01:56:37.317Z,2.75
2023-08-23T01:59:05.308Z,3.03
2023-08-23T02:01:33.758Z,2.85
2023-08-23T02:04:01.658Z,2.35
2023-08-23T02:06:29.500Z,2.47
2023-08-23T02:08:57.227Z,2.70
2023-08-23T02:11:25.026Z,2.60
2023-08-23T02:13:54.475Z,3.00
2023-08-23T02:16:22.282Z,2.70
2023-08-23T02:18:50.851Z,2.70
2023-08-23T02:21:18.726Z,2.78
2023-08-23T02:23:46.495Z,2.58
2023-08-23T02:26:14.797Z,2.60
2023-08-23T02:28:42.598Z,2.80
2023-08-23T02:31:11.713Z,3.10
2023-08-23T02:33:39.991Z,2.80
2023-08-23T02:36:07.945Z,2.78
2023-08-23T02:38:35.700Z,2.60
2023-08-23T02:41:03.880Z,2.97
2023-08-23T02:43:31.665Z,2.80
2023-08-23T02:45:59.426Z,3.55
2023-08-23T02:48:30.192Z,2.80
2023-08-23T02:50:58.278Z,2.60
2023-08-23T02:53:26.042Z,3.00
2023-08-23T02:55:53.946Z,3.00
2023-08-23T02:58:21.748Z,2.85
2023-08-23T03:00:49.572Z,2.55
2023-08-23T03:03:17.475Z,2.70
2023-08-23T03:05:56.388Z,2.90
2023-08-23T03:08:24.310Z,3.15
2023-08-23T03:10:52.457Z,2.80
2023-08-23T03:13:20.277Z,2.70
2023-08-23T03:15:56.033Z,2.75
2023-08-23T03:18:24.488Z,2.63
2023-08-23T03:20:54.246Z,2.85
2023-08-23T03:23:22.934Z,3.00
2023-08-23T03:25:51.914Z,2.78
2023-08-23T03:28:19.715Z,2.90
2023-08-23T03:30:47.535Z,2.88
2023-08-23T03:33:15.488Z,2.90
2023-08-23T03:35:43.603Z,2.97
2023-08-23T03:38:13.013Z,2.88
2023-08-23T03:40:41.612Z,2.88
2023-08-23T03:43:09.419Z,3.22
2023-08-23T03:45:37.246Z,2.63
2023-08-23T03:48:06.738Z,2.80
2023-08-23T03:50:36.462Z,3.10
2023-08-23T03:53:04.368Z,3.00
2023-08-23T03:55:35.025Z,2.63
2023-08-23T03:58:02.881Z,3.28
2023-08-23T04:00:30.900Z,2.95
2023-08-23T04:02:58.797Z,2.95
2023-08-23T04:05:26.697Z,2.80
2023-08-23T04:07:54.463Z,3.00
2023-08-23T04:10:22.230Z,2.97
2023-08-23T04:12:51.423Z,3.00
2023-08-23T04:15:19.321Z,3.53
2023-08-23T04:17:47.388Z,3.20
2023-08-23T04:20:15.839Z,3.25
2023-08-23T04:22:43.750Z,3.22
2023-08-23T04:25:12.914Z,3.17
2023-08-23T04:27:40.734Z,3.40
2023-08-23T04:30:11.251Z,2.95
2023-08-23T04:32:39.053Z,2.72
2023-08-23T04:35:08.034Z,3.22
2023-08-23T04:37:36.044Z,3.00
2023-08-23T04:40:04.038Z,3.13
2023-08-23T04:42:33.156Z,2.55
2023-08-23T04:45:01.907Z,3.13
2023-08-23T04:47:33.373Z,3.15
2023-08-23T04:50:01.201Z,2.97
2023-08-23T04:52:31.007Z,2.85
2023-08-23T04:54:58.944Z,3.17
2023-08-23T04:57:26.757Z,3.00
2023-08-23T04:59:55.840Z,2.58
2023-08-23T05:02:24.099Z,2.92
2023-08-23T05:04:53.254Z,3.13
2023-08-23T05:07:21.021Z,3.15
2023-08-23T05:09:48.807Z,3.33
2023-08-23T05:12:16.561Z,3.22
2023-08-23T05:14:44.313Z,3.35
2023-08-23T05:17:12.133Z,3.03
2023-08-23T05:19:39.996Z,3.15
2023-08-23T05:22:09.121Z,2.80
2023-08-23T05:24:37.071Z,3.35
2023-08-23T05:27:05.268Z,3.47
2023-08-23T05:29:33.055Z,2.80
2023-08-23T05:32:00.823Z,3.05
2023-08-23T05:34:28.624Z,2.90
2023-08-23T05:36:56.395Z,2.85
2023-08-23T05:39:25.836Z,3.00
2023-08-23T05:41:53.602Z,3.50
2023-08-23T05:44:21.393Z,3.15
2023-08-23T05:46:49.157Z,3.42
2023-08-23T05:49:17.722Z,3.00
2023-08-23T05:51:46.773Z,3.22
2023-08-23T05:54:14.568Z,3.13
2023-08-23T05:56:43.774Z,3.50
2023-08-23T05:59:11.544Z,3.67
2023-08-23T06:01:39.385Z,3.15
2023-08-23T06:04:07.217Z,2.97
2023-08-23T06:06:35.045Z,3.10
2023-08-23T06:09:03.295Z,2.83
2023-08-23T06:11:31.079Z,3.20
2023-08-23T06:14:00.182Z,3.33
2023-08-23T06:16:27.992Z,3.05
2023-08-23T06:18:56.113Z,3.45
2023-08-23T06:21:23.848Z,3.08
2023-08-23T06:23:51.783Z,2.97
2023-08-23T06:26:19.491Z,3.63
2023-08-23T06:28:47.277Z,3.45
2023-08-23T06:31:21.734Z,3.03
2023-08-23T06:33:50.026Z,3.05
2023-08-23T06:36:17.774Z,3.38
2023-08-23T06:38:46.216Z,3.30
2023-08-23T06:41:14.252Z,3.22
2023-08-23T06:43:42.179Z,3.13
2023-08-23T06:46:10.093Z,3.60
2023-08-23T06:48:39.290Z,3.88
2023-08-23T06:51:07.099Z,3.33
2023-08-23T06:53:36.574Z,3.40
2023-08-23T06:56:05.502Z,3.35
2023-08-23T06:58:33.313Z,3.13
2023-08-23T07:01:01.247Z,3.45
2023-08-23T07:03:29.184Z,3.47
2023-08-23T07:05:58.355Z,3.78
2023-08-23T07:08:26.178Z,3.30
2023-08-23T07:10:53.965Z,3.15
2023-08-23T07:13:21.755Z,3.00
2023-08-23T07:15:50.457Z,3.30
2023-08-23T07:18:18.285Z,3.22
2023-08-23T07:20:46.943Z,3.60
2023-08-23T07:23:16.053Z,2.95
2023-08-23T07:25:45.173Z,3.63
2023-08-23T07:28:13.564Z,3.08
2023-08-23T07:30:47.383Z,3.10
2023-08-23T07:33:15.349Z,3.33
2023-08-23T07:35:43.263Z,3.35
2023-08-23T07:38:11.228Z,3.67
2023-08-23T07:40:40.491Z,3.13
2023-08-23T07:43:08.769Z,3.33
2023-08-23T07:45:36.572Z,3.28
2023-08-23T07:48:05.636Z,3.47
2023-08-23T07:50:33.513Z,3.47
2023-08-23T07:53:01.278Z,3.17
2023-08-23T07:55:29.120Z,3.10
2023-08-23T07:57:58.228Z,3.50
2023-08-23T08:00:26.009Z,3.40
2023-08-23T08:02:53.824Z,3.55
2023-08-23T08:05:21.741Z,3.50
2023-08-23T08:10:21.279Z,3.70
2023-08-23T08:12:49.370Z,3.35
2023-08-23T08:15:18.646Z,4.03
2023-08-23T08:17:47.640Z,3.67
2023-08-23T08:20:15.819Z,3.88
2023-08-23T08:22:43.633Z,3.50
2023-08-23T08:25:14.240Z,3.95
2023-08-23T08:27:42.670Z,3.65
2023-08-23T08:30:12.035Z,3.58
2023-08-23T08:32:41.225Z,3.67
2023-08-23T08:35:10.606Z,4.07
2023-08-23T08:37:39.134Z,3.80
2023-08-23T08:40:08.902Z,3.85
2023-08-23T08:42:37.132Z,3.60
2023-08-23T08:45:08.386Z,4.20
2023-08-23T08:47:36.465Z,4.15
2023-08-23T08:50:07.635Z,3.95
2023-08-23T08:52:38.290Z,3.58
2023-08-23T08:55:07.907Z,4.03
2023-08-23T08:57:36.798Z,3.45
2023-08-23T09:00:09.040Z,3.97
2023-08-23T09:02:39.838Z,4.22
2023-08-23T09:05:10.992Z,4.15
2023-08-23T09:07:40.964Z,3.75
2023-08-23T09:10:09.731Z,3.80
2023-08-23T09:12:37.812Z,3.97
2023-08-23T09:15:06.867Z,4.28
2023-08-23T09:17:36.088Z,4.28
2023-08-23T09:20:07.368Z,4.07
2023-08-23T09:22:36.928Z,3.88
2023-08-23T09:25:06.116Z,4.20
2023-08-23T09:27:38.163Z,3.92
2023-08-23T09:30:08.044Z,4.63
2023-08-23T09:32:36.012Z,3.90
2023-08-23T09:35:15.105Z,3.83
2023-08-23T09:37:45.484Z,4.32
2023-08-23T09:40:21.364Z,4.13
2023-08-23T09:42:51.319Z,3.88
2023-08-23T09:45:22.732Z,3.63
2023-08-23T09:47:54.074Z,4.03
2023-08-23T09:50:23.564Z,3.97
2023-08-23T09:52:59.008Z,4.18
2023-08-23T09:55:27.815Z,4.20
2023-08-23T09:57:56.629Z,3.58
2023-08-23T10:00:25.368Z,3.95
2023-08-23T10:02:54.829Z,4.18
2023-08-23T10:05:26.281Z,4.00
2023-08-23T10:07:58.337Z,3.67
2023-08-23T10:10:27.618Z,3.95
2023-08-23T10:13:05.255Z,4.18
2023-08-23T10:15:36.632Z,3.85
2023-08-23T10:18:10.310Z,3.60
2023-08-23T10:20:39.624Z,4.07
2023-08-23T10:23:14.393Z,3.67
2023-08-23T10:25:44.054Z,4.25
2023-08-23T10:28:16.184Z,3.80
2023-08-23T10:30:45.455Z,4.15
2023-08-23T10:33:16.330Z,3.67
2023-08-23T10:35:46.315Z,3.78
2023-08-23T10:38:16.680Z,3.45
2023-08-23T10:40:49.513Z,3.50
2023-08-23T10:43:19.499Z,3.97
2023-08-23T10:45:57.423Z,3.72
2023-08-23T10:48:25.951Z,3.80
2023-08-23T10:50:55.293Z,3.47
2023-08-23T10:53:28.613Z,3.63
2023-08-23T10:58:25.863Z,4.00
2023-08-23T11:00:54.949Z,4.57
2023-08-23T11:03:23.329Z,4.13
2023-08-23T11:05:51.217Z,3.83
2023-08-23T11:08:19.203Z,3.90
2023-08-23T11:10:48.400Z,3.88
2023-08-23T11:13:16.692Z,3.40
2023-08-23T11:15:44.957Z,3.63
2023-08-23T11:18:14.846Z,4.20
2023-08-23T11:20:43.057Z,3.65
2023-08-23T11:23:11.467Z,3.33
2023-08-23T11:25:39.283Z,3.38
2023-08-23T11:28:09.405Z,3.38
2023-08-23T11:30:37.622Z,3.22
2023-08-23T11:33:06.868Z,3.20
2023-08-23T11:35:34.988Z,3.22
2023-08-23T11:38:05.551Z,3.13
2023-08-23T11:40:35.340Z,3.70
2023-08-23T11:43:21.711Z,3.30
2023-08-23T11:45:53.743Z,3.78
2023-08-23T11:48:24.805Z,3.10
2023-08-23T11:50:54.205Z,3.65
2023-08-23T11:53:22.003Z,3.05
2023-08-23T11:55:52.468Z,3.60
2023-08-23T11:58:20.274Z,3.45
2023-08-23T12:00:49.948Z,3.60
2023-08-23T12:03:19.299Z,3.63
2023-08-23T12:05:47.137Z,3.72
2023-08-23T12:08:14.955Z,3.47
2023-08-23T12:10:42.763Z,3.60
2023-08-23T12:13:12.544Z,3.70
2023-08-23T12:15:40.586Z,3.28
2023-08-23T12:18:08.503Z,3.40
2023-08-23T12:20:37.732Z,3.17
2023-08-23T12:23:06.040Z,3.00
2023-08-23T12:25:34.431Z,3.33
2023-08-23T12:28:02.258Z,2.83
2023-08-23T12:30:30.025Z,3.30
2023-08-23T12:32:57.819Z,3.53
2023-08-23T12:35:25.841Z,3.03
2023-08-23T12:37:54.947Z,3.38
2023-08-23T12:40:22.809Z,2.92
2023-08-23T12:42:50.709Z,3.30
2023-08-23T12:45:18.487Z,2.63
2023-08-23T12:47:47.304Z,2.50
2023-08-23T12:50:15.410Z,2.95
2023-08-23T12:52:43.193Z,3.17
2023-08-23T12:55:12.309Z,2.75
2023-08-23T12:57:40.210Z,2.92
2023-08-23T13:00:27.165Z,2.85
2023-08-23T13:02:57.680Z,2.92
2023-08-23T13:05:25.553Z,2.95
2023-08-23T13:07:53.333Z,2.88
2023-08-23T13:10:22.473Z,3.15
2023-08-23T13:12:50.283Z,2.55
2023-08-23T13:15:18.496Z,3.00
2023-08-23T13:17:46.846Z,2.65
2023-08-23T13:20:15.128Z,3.00
2023-08-23T13:22:42.941Z,2.80
2023-08-23T13:25:11.692Z,2.92
2023-08-23T13:27:40.815Z,2.80
2023-08-23T13:30:10.521Z,3.00
2023-08-23T13:32:38.417Z,2.92
2023-08-23T13:35:07.064Z,2.95
2023-08-23T13:37:35.466Z,2.90
2023-08-23T13:40:05.996Z,2.90
2023-08-23T13:42:33.735Z,3.00
2023-08-23T13:45:02.846Z,2.60
2023-08-23T13:47:30.674Z,2.95
2023-08-23T13:49:58.604Z,2.55
2023-08-23T13:52:26.371Z,2.72
2023-08-23T13:54:54.155Z,3.00
2023-08-23T13:57:21.891Z,2.53
2023-08-23T13:59:49.827Z,2.38
2023-08-23T14:02:19.059Z,2.85
2023-08-23T14:04:46.792Z,2.80
2023-08-23T14:07:16.150Z,2.60
2023-08-23T14:09:44.230Z,2.50
2023-08-23T14:12:12.129Z,2.40
2023-08-23T14:14:39.956Z,2.60
2023-08-23T14:17:07.710Z,2.95
2023-08-23T14:19:48.754Z,2.65
2023-08-23T14:22:17.238Z,2.50
2023-08-23T14:24:45.684Z,2.92
2023-08-23T14:27:13.504Z,2.58
2023-08-23T14:29:41.216Z,2.80
2023-08-23T14:32:09.124Z,2.40
2023-08-23T14:34:37.089Z,2.67
2023-08-23T14:37:06.875Z,2.80
2023-08-23T14:39:34.663Z,2.67
2023-08-23T14:42:02.481Z,2.90
2023-08-23T14:44:30.978Z,2.20
2023-08-23T14:46:59.791Z,2.65
2023-08-23T14:49:27.698Z,2.42
2023-08-23T14:51:55.922Z,2.50
2023-08-23T14:54:25.046Z,2.70
2023-08-23T14:56:53.032Z,2.63
2023-08-23T14:59:20.816Z,2.63
2023-08-23T15:01:48.884Z,2.40
2023-08-23T15:04:16.877Z,2.70
2023-08-23T15:06:44.635Z,2.40
2023-08-23T15:09:12.546Z,2.50
2023-08-23T15:11:41.678Z,2.45
2023-08-23T15:14:11.997Z,2.50
2023-08-23T15:16:40.116Z,2.53
2023-08-23T15:19:08.810Z,2.75
2023-08-23T15:21:36.943Z,2.75
2023-08-23T15:24:05.754Z,2.33
2023-08-23T15:26:33.969Z,2.55
2023-08-23T15:29:04.336Z,2.40
2023-08-23T15:31:32.168Z,2.10
2023-08-23T15:34:00.805Z,2.50
2023-08-23T15:36:28.555Z,2.40
2023-08-23T15:38:56.333Z,2.38
2023-08-23T15:41:24.560Z,2.47
2023-08-23T15:43:52.309Z,2.80
2023-08-23T15:46:21.418Z,2.45
2023-08-23T15:48:49.326Z,2.22
2023-08-23T15:51:17.070Z,2.63
2023-08-23T15:53:45.247Z,2.47
2023-08-23T15:56:13.134Z,2.75
2023-08-23T15:58:41.252Z,2.90
2023-08-23T16:01:09.096Z,2.45
2023-08-23T16:03:38.277Z,2.30
2023-08-23T16:06:07.810Z,2.08
2023-08-23T16:08:35.666Z,2.30
2023-08-23T16:11:03.760Z,2.63
2023-08-23T16:13:31.890Z,2.38
2023-08-23T16:15:59.756Z,2.20
2023-08-23T16:18:27.668Z,2.00
2023-08-23T16:20:57.215Z,2.03
2023-08-23T16:23:25.059Z,2.35
2023-08-23T16:25:56.225Z,2.20
2023-08-23T16:28:24.057Z,1.80
2023-08-23T16:30:52.682Z,2.00
2023-08-23T16:33:21.127Z,2.30
2023-08-23T16:35:49.549Z,2.20
2023-08-23T16:38:18.736Z,2.25
2023-08-23T16:40:46.548Z,2.30
2023-08-23T16:43:14.299Z,2.35
2023-08-23T16:45:42.063Z,1.85
2023-08-23T16:48:09.865Z,2.40
2023-08-23T16:50:39.762Z,2.15
2023-08-23T16:53:07.635Z,2.13
2023-08-23T16:55:37.936Z,2.28
2023-08-23T16:58:05.726Z,2.13
2023-08-23T17:00:34.917Z,1.95
2023-08-23T17:03:03.118Z,2.08
2023-08-23T17:05:31.106Z,2.20
2023-08-23T17:07:58.903Z,2.00
2023-08-23T17:10:26.669Z,2.10
2023-08-23T17:12:56.213Z,1.98
2023-08-23T17:15:24.065Z,2.00
2023-08-23T17:17:52.079Z,2.40
2023-08-23T17:20:20.440Z,1.90
2023-08-23T17:22:48.667Z,1.95
2023-08-23T17:25:16.780Z,1.80
2023-08-23T17:27:44.505Z,1.70
2023-08-23T17:30:14.228Z,1.90
2023-08-23T17:32:42.130Z,2.33
2023-08-23T17:35:11.320Z,2.17
2023-08-23T17:37:39.071Z,2.20
2023-08-23T17:40:08.713Z,2.05
2023-08-23T17:42:38.154Z,1.90
2023-08-23T17:45:07.780Z,1.95
2023-08-23T17:47:37.093Z,2.08
2023-08-23T17:50:05.785Z,1.88
2023-08-23T17:52:33.740Z,2.13
2023-08-23T17:55:02.157Z,1.98
2023-08-23T17:57:30.736Z,2.20
2023-08-23T17:59:58.558Z,1.88
2023-08-23T18:02:26.395Z,1.63
2023-08-23T18:04:55.479Z,1.83
2023-08-23T18:07:23.278Z,2.30
2023-08-23T18:09:51.488Z,1.95
2023-08-23T18:12:19.212Z,1.63
2023-08-23T18:14:46.992Z,2.10
2023-08-23T18:17:14.744Z,1.52
2023-08-23T18:19:44.006Z,1.85
2023-08-23T18:22:13.159Z,1.92
2023-08-23T18:24:41.739Z,2.28
2023-08-23T18:27:09.560Z,1.65
2023-08-23T18:29:37.690Z,1.95
2023-08-23T18:32:06.365Z,2.00
2023-08-23T18:34:34.158Z,1.77
2023-08-23T18:37:01.912Z,1.95
2023-08-23T18:39:31.089Z,2.30
2023-08-23T18:41:58.977Z,1.70
2023-08-23T18:44:28.158Z,1.42
2023-08-23T18:46:58.136Z,1.52
2023-08-23T18:49:25.871Z,1.48
2023-08-23T18:51:53.614Z,1.88
2023-08-23T18:54:21.520Z,2.05
2023-08-23T18:56:50.671Z,1.48
2023-08-23T18:59:18.594Z,1.70
2023-08-23T19:01:46.435Z,1.73
2023-08-23T19:04:14.397Z,1.63
2023-08-23T19:06:42.142Z,1.60
2023-08-23T19:09:09.914Z,2.03
2023-08-23T19:11:37.665Z,1.58
2023-08-23T19:14:06.735Z,1.52
2023-08-23T19:16:35.509Z,1.70
2023-08-23T19:19:03.736Z,1.52
2023-08-23T19:21:31.540Z,1.55
2023-08-23T19:23:59.618Z,1.23
2023-08-23T19:26:27.430Z,1.90
2023-08-23T19:28:55.207Z,1.85
2023-08-23T19:31:24.399Z,1.27
2023-08-23T19:33:52.146Z,1.48
2023-08-23T19:36:20.887Z,1.63
2023-08-23T19:38:48.809Z,2.00
2023-08-23T19:41:16.644Z,1.60
2023-08-23T19:43:44.436Z,1.67
2023-08-23T19:46:12.284Z,1.40
2023-08-23T19:48:41.442Z,1.80
2023-08-23T19:51:09.237Z,1.65
2023-08-23T19:53:37.049Z,2.25
2023-08-23T19:56:06.198Z,1.92
2023-08-23T19:58:35.240Z,2.30
2023-08-23T20:01:04.297Z,2.42
2023-08-23T20:03:32.587Z,2.25
2023-08-23T20:06:03.489Z,2.60
2023-08-23T20:08:32.024Z,2.42
2023-08-23T20:11:03.016Z,1.90
2023-08-23T20:13:31.946Z,2.08
2023-08-23T20:16:01.024Z,2.03
2023-08-23T20:18:28.995Z,2.20
2023-08-23T20:20:56.842Z,1.80
2023-08-23T20:23:25.971Z,1.85
2023-08-23T20:25:53.700Z,1.58
2023-08-23T20:28:21.403Z,2.65
2023-08-23T20:30:49.726Z,1.95
2023-08-23T20:33:17.470Z,2.13
2023-08-23T20:35:48.055Z,1.88
2023-08-23T20:38:15.781Z,1.73
2023-08-23T20:40:44.904Z,2.30
2023-08-23T20:43:12.647Z,2.08
2023-08-23T20:45:41.625Z,2.22
2023-08-23T20:48:11.496Z,2.50
2023-08-23T20:50:39.444Z,2.08
2023-08-23T20:53:07.190Z,1.77
2023-08-23T20:55:35.146Z,2.20
2023-08-23T20:58:04.647Z,2.17
2023-08-23T21:00:32.395Z,2.05
2023-08-23T21:03:00.335Z,2.05
2023-08-23T21:05:30.523Z,2.10
2023-08-23T21:07:58.402Z,1.77
2023-08-23T21:10:27.669Z,1.27
2023-08-23T21:12:55.418Z,1.50
2023-08-23T21:15:24.509Z,1.67
2023-08-23T21:17:52.438Z,1.27
2023-08-23T21:20:20.522Z,1.77
2023-08-23T21:22:48.303Z,1.80
2023-08-23T21:25:16.965Z,1.75
2023-08-23T21:27:44.668Z,1.52
2023-08-23T21:30:13.868Z,1.70
2023-08-23T21:32:43.027Z,2.33
2023-08-23T21:35:10.868Z,2.38
2023-08-23T21:37:38.724Z,2.75
2023-08-23T21:40:08.508Z,2.28
2023-08-23T21:42:36.257Z,2.40
2023-08-23T21:45:04.240Z,2.05
2023-08-23T21:47:32.251Z,2.30
2023-08-23T21:50:01.781Z,2.50
2023-08-23T21:52:30.258Z,2.35
2023-08-23T21:54:57.984Z,2.30
2023-08-23T21:57:25.711Z,2.65
2023-08-23T21:59:53.588Z,2.40
2023-08-23T22:02:21.416Z,2.35
2023-08-23T22:04:49.358Z,2.95
2023-08-23T22:07:18.434Z,2.28
2023-08-23T22:09:46.203Z,2.00
2023-08-23T22:12:13.924Z,2.08
2023-08-23T22:14:41.711Z,2.22
2023-08-23T22:17:10.175Z,2.08
2023-08-23T22:19:38.134Z,1.80
2023-08-23T22:22:06.234Z,1.95
2023-08-23T22:24:35.281Z,2.08
2023-08-23T22:27:03.027Z,2.05
2023-08-23T22:29:30.860Z,2.30
2023-08-23T22:31:58.629Z,2.28
2023-08-23T22:34:26.355Z,2.08
2023-08-23T22:36:55.897Z,2.20
2023-08-23T22:39:23.706Z,2.03
2023-08-23T22:41:52.778Z,2.60
2023-08-23T22:44:20.557Z,2.42
2023-08-23T22:46:48.329Z,2.50
2023-08-23T22:49:19.003Z,2.58
2023-08-23T22:51:46.747Z,2.42
2023-08-23T22:54:14.578Z,2.47
2023-08-23T22:56:42.296Z,2.17
2023-08-23T22:59:11.393Z,2.30
2023-08-23T23:01:39.392Z,2.42
2023-08-23T23:04:07.174Z,2.13
2023-08-23T23:06:35.173Z,2.55
2023-08-23T23:09:05.367Z,2.50
2023-08-23T23:11:33.126Z,2.33
2023-08-23T23:14:00.928Z,2.78
2023-08-23T23:16:30.088Z,2.50
2023-08-23T23:18:57.947Z,2.45
2023-08-23T23:21:25.734Z,2.55
2023-08-23T23:23:54.168Z,2.72
2023-08-23T23:26:21.892Z,2.63
2023-08-23T23:28:49.718Z,2.78
2023-08-23T23:31:17.568Z,2.42
2023-08-23T23:33:46.659Z,2.30
2023-08-23T23:36:14.510Z,2.35
2023-08-23T23:38:44.243Z,2.85
2023-08-23T23:41:12.614Z,2.67
2023-08-23T23:43:42.702Z,2.70
2023-08-23T23:46:10.669Z,2.45
2023-08-23T23:48:38.498Z,2.40
2023-08-23T23:51:07.607Z,2.40
2023-08-23T23:53:35.363Z,2.67
2023-08-23T23:56:03.369Z,2.70
2023-08-23T23:58:31.107Z,2.40
